Time;durP1;ratioP1;P1;durP2;ratioP2;P2;SDS_P1;SDS_P2;PMS_P1;PMS_P2;Temp;Humidity;BMP_temperature;BMP_pressure;BME280_temperature;BME280_humidity;BME280_pressure;Samples;Min_cycle;Max_cycle;Signal;HPM_P1;HPM_P2
2022/05/19 00:02:14;;;;;;;5.28;1.15;;;15.70;99.90;;;;;;5011161;28;20033;-58
2022/05/19 00:04:41;;;;;;;6.00;1.83;;;15.60;99.90;;;;;;5011049;28;20030;-59
2022/05/19 00:07:08;;;;;;;8.95;1.75;;;15.50;99.90;;;;;;5012816;28;20389;-58
2022/05/19 00:09:35;;;;;;;4.10;1.33;;;15.60;99.90;;;;;;5012223;28;20072;-57
2022/05/19 00:12:05;;;;;;;11.35;1.65;;;15.60;99.90;;;;;;5009908;28;20038;-59
2022/05/19 00:14:31;;;;;;;8.15;1.92;;;15.60;99.90;;;;;;5012831;28;20061;-59
2022/05/19 00:16:57;;;;;;;8.18;1.38;;;15.50;99.90;;;;;;5009524;28;20065;-58
2022/05/19 00:19:24;;;;;;;5.80;1.85;;;15.50;99.90;;;;;;5012774;28;20029;-58
2022/05/19 00:21:50;;;;;;;9.63;1.90;;;15.50;99.90;;;;;;5009656;28;20529;-59
2022/05/19 00:24:16;;;;;;;10.05;2.95;;;15.50;99.90;;;;;;5011411;28;20109;-59
2022/05/19 00:26:42;;;;;;;6.20;2.10;;;15.50;99.90;;;;;;5012228;28;20552;-59
2022/05/19 00:29:08;;;;;;;10.45;2.20;;;15.40;99.90;;;;;;5011039;28;20052;-59
2022/05/19 00:31:34;;;;;;;10.52;1.50;;;15.40;99.90;;;;;;5011721;28;20075;-59
2022/05/19 00:34:01;;;;;;;3.22;1.15;;;15.40;99.90;;;;;;5010225;28;20450;-59
2022/05/19 00:36:27;;;;;;;4.10;1.55;;;15.40;99.90;;;;;;5012272;28;20018;-59
2022/05/19 00:38:53;;;;;;;6.88;1.75;;;15.40;99.90;;;;;;5009671;28;20120;-59
2022/05/19 00:41:19;;;;;;;3.72;1.13;;;15.40;99.90;;;;;;5009822;28;20030;-59
2022/05/19 00:43:56;;;;;;;5.35;1.52;;;15.30;99.90;;;;;;5012228;28;20501;-59
2022/05/19 00:46:30;;;;;;;6.85;1.90;;;15.30;99.90;;;;;;5011854;28;20113;-59
2022/05/19 00:49:06;;;;;;;7.45;1.60;;;15.40;99.90;;;;;;5007243;28;20033;-58
2022/05/19 00:51:40;;;;;;;15.15;2.55;;;15.40;99.90;;;;;;5011851;28;20041;-59
2022/05/19 00:54:11;;;;;;;5.95;1.63;;;15.50;99.90;;;;;;5001717;28;20120;-59
2022/05/19 00:56:42;;;;;;;9.35;1.65;;;15.50;99.90;;;;;;5011841;28;20053;-58
2022/05/19 00:59:14;;;;;;;5.07;1.65;;;15.50;99.90;;;;;;5007131;28;20082;-59
2022/05/19 01:01:43;;;;;;;2.53;1.45;;;15.40;99.90;;;;;;5010988;28;20029;-59
2022/05/19 01:04:19;;;;;;;4.43;1.20;;;15.40;99.90;;;;;;5010604;28;20487;-59
2022/05/19 01:06:49;;;;;;;5.85;1.38;;;15.30;99.90;;;;;;5008551;28;20497;-59
2022/05/19 01:09:15;;;;;;;8.07;1.75;;;15.20;99.90;;;;;;5011108;28;20022;-59
2022/05/19 01:11:42;;;;;;;12.75;2.83;;;15.20;99.90;;;;;;5004926;28;20026;-59
2022/05/19 01:14:08;;;;;;;6.63;2.10;;;15.20;99.90;;;;;;5009720;28;20034;-59
2022/05/19 01:16:35;;;;;;;6.53;1.80;;;15.10;99.90;;;;;;5011478;28;20386;-58
2022/05/19 01:19:05;;;;;;;4.32;1.88;;;15.10;99.90;;;;;;5009015;28;20037;-58
2022/05/19 01:21:32;;;;;;;8.27;2.42;;;15.00;99.90;;;;;;5010975;28;20022;-59
2022/05/19 01:24:25;;;;;;;11.38;2.58;;;15.00;99.90;;;;;;5009775;28;20041;-59
2022/05/19 01:26:53;;;;;;;3.33;1.73;;;15.00;99.90;;;;;;5009292;28;20140;-59
2022/05/19 01:29:24;;;;;;;10.20;2.17;;;15.00;99.90;;;;;;5010961;28;20482;-59
2022/05/19 01:31:57;;;;;;;5.78;1.70;;;15.00;99.90;;;;;;5001905;28;20042;-59
2022/05/19 01:34:27;;;;;;;8.05;1.90;;;14.90;99.90;;;;;;5003394;28;20500;-58
2022/05/19 01:36:53;;;;;;;5.30;2.10;;;14.90;99.90;;;;;;5004057;28;20026;-59
2022/05/19 01:39:28;;;;;;;6.97;1.50;;;14.90;99.90;;;;;;5011252;28;20104;-59
2022/05/19 01:42:31;;;;;;;5.55;1.73;;;14.90;99.90;;;;;;5007166;28;20092;-58
2022/05/19 01:45:21;;;;;;;7.45;2.10;;;14.90;99.90;;;;;;5007765;28;20026;-59
2022/05/19 01:47:53;;;;;;;8.52;2.10;;;15.00;99.90;;;;;;5011133;28;20480;-59
2022/05/19 01:50:24;;;;;;;11.60;3.42;;;15.00;99.90;;;;;;5010083;28;20072;-59
2022/05/19 01:53:00;;;;;;;6.97;1.95;;;15.00;99.90;;;;;;5008173;28;20045;-59
2022/05/19 01:55:48;;;;;;;5.68;2.08;;;15.10;99.90;;;;;;5011186;28;20029;-58
2022/05/19 01:58:26;;;;;;;8.45;2.10;;;15.00;99.90;;;;;;5006748;28;20034;-58
2022/05/19 02:00:55;;;;;;;6.82;1.80;;;15.10;99.90;;;;;;5008527;28;20026;-60
2022/05/19 02:03:40;;;;;;;7.22;2.08;;;15.20;99.90;;;;;;5009892;28;20053;-57
2022/05/19 02:06:10;;;;;;;6.38;1.90;;;15.30;99.90;;;;;;5009205;28;20038;-58
2022/05/19 02:08:45;;;;;;;11.20;2.53;;;15.30;99.90;;;;;;5004767;28;20371;-58
2022/05/19 02:11:16;;;;;;;10.35;2.38;;;15.50;99.90;;;;;;5008591;28;20424;-58
2022/05/19 02:13:42;;;;;;;13.32;2.83;;;15.50;99.90;;;;;;5006295;28;20092;-58
2022/05/19 02:16:13;;;;;;;11.07;2.47;;;15.60;99.90;;;;;;5008781;28;20041;-59
2022/05/19 02:18:41;;;;;;;15.93;2.85;;;15.50;99.90;;;;;;5008840;28;20393;-59
2022/05/19 02:21:07;;;;;;;7.10;2.20;;;15.50;99.90;;;;;;5007272;28;20033;-59
2022/05/19 02:23:34;;;;;;;10.00;2.10;;;15.40;99.90;;;;;;5010670;28;20026;-59
2022/05/19 02:26:00;;;;;;;10.48;1.75;;;15.40;99.90;;;;;;5008497;28;20034;-58
2022/05/19 02:28:31;;;;;;;9.85;2.53;;;15.30;99.90;;;;;;5008431;28;20022;-59
2022/05/19 02:30:57;;;;;;;4.63;1.67;;;15.30;99.90;;;;;;4997974;28;20046;-59
2022/05/19 02:33:23;;;;;;;9.32;2.20;;;15.30;99.90;;;;;;5009656;28;20057;-59
2022/05/19 02:35:50;;;;;;;6.95;2.03;;;15.30;99.90;;;;;;5010233;28;20123;-58
2022/05/19 02:38:18;;;;;;;13.65;2.20;;;15.30;99.90;;;;;;5010394;28;20026;-59
2022/05/19 02:40:44;;;;;;;14.48;2.25;;;15.20;99.90;;;;;;5008437;28;20459;-59
2022/05/19 02:43:12;;;;;;;10.85;2.00;;;15.20;99.90;;;;;;5002534;28;20037;-59
2022/05/19 02:45:38;;;;;;;9.43;1.90;;;15.10;99.90;;;;;;5000815;28;20481;-59
2022/05/19 02:48:05;;;;;;;9.65;2.03;;;15.00;99.90;;;;;;5008404;28;20404;-59
2022/05/19 02:50:31;;;;;;;7.80;1.85;;;15.00;99.90;;;;;;5009423;28;20026;-59
2022/05/19 02:52:57;;;;;;;9.02;2.42;;;14.90;99.90;;;;;;5007563;28;20401;-59
2022/05/19 02:55:23;;;;;;;11.70;2.25;;;14.90;99.90;;;;;;5010030;28;20030;-59
2022/05/19 02:57:50;;;;;;;9.63;1.90;;;14.80;99.90;;;;;;5009508;28;20044;-60
2022/05/19 03:00:19;;;;;;;10.88;2.03;;;14.80;99.90;;;;;;5001728;28;20022;-58
2022/05/19 03:02:45;;;;;;;7.38;1.80;;;14.80;99.90;;;;;;5007430;28;20030;-59
2022/05/19 03:05:15;;;;;;;10.60;2.60;;;14.80;99.90;;;;;;5008391;28;20030;-58
2022/05/19 03:07:41;;;;;;;10.63;1.75;;;14.80;99.90;;;;;;5009816;28;20030;-59
2022/05/19 03:10:07;;;;;;;7.70;1.75;;;14.70;99.90;;;;;;5006855;28;20026;-59
2022/05/19 03:12:33;;;;;;;6.82;1.92;;;14.70;99.90;;;;;;5008842;28;20053;-59
2022/05/19 03:14:59;;;;;;;9.30;2.05;;;14.70;99.90;;;;;;5008041;28;20034;-58
2022/05/19 03:17:25;;;;;;;12.15;3.33;;;14.70;99.90;;;;;;5009538;28;20030;-58
2022/05/19 03:19:55;;;;;;;12.80;3.20;;;14.70;99.90;;;;;;5006398;28;20026;-58
2022/05/19 03:22:21;;;;;;;11.23;2.83;;;14.60;99.90;;;;;;5008571;28;20061;-58
2022/05/19 03:24:47;;;;;;;18.40;3.15;;;14.60;99.90;;;;;;5009468;28;20084;-59
2022/05/19 03:27:13;;;;;;;20.10;2.75;;;14.60;99.90;;;;;;5006821;28;20029;-59
2022/05/19 03:29:39;;;;;;;19.38;3.30;;;14.60;99.90;;;;;;5009276;28;20076;-58
2022/05/19 03:32:05;;;;;;;19.88;3.40;;;14.60;99.90;;;;;;5008144;28;20128;-58
2022/05/19 03:34:31;;;;;;;17.70;3.05;;;14.50;99.90;;;;;;5008734;28;20129;-58
2022/05/19 03:36:56;;;;;;;27.48;4.85;;;14.50;99.90;;;;;;5001339;28;20112;-59
2022/05/19 03:39:22;;;;;;;23.00;3.80;;;14.50;99.90;;;;;;5009601;28;20130;-58
2022/05/19 03:41:48;;;;;;;18.45;3.58;;;14.50;99.90;;;;;;5008385;28;20363;-59
2022/05/19 03:44:14;;;;;;;17.30;3.30;;;14.50;99.90;;;;;;5006946;28;20030;-59
2022/05/19 03:46:40;;;;;;;15.27;2.88;;;14.40;99.90;;;;;;5009684;28;20478;-59
2022/05/19 03:49:06;;;;;;;16.70;3.42;;;14.40;99.90;;;;;;5007727;28;20030;-59
2022/05/19 03:51:33;;;;;;;14.60;3.83;;;14.30;99.90;;;;;;5007568;28;20048;-59
2022/05/19 03:53:59;;;;;;;23.00;3.65;;;14.30;99.90;;;;;;5007588;28;20104;-59
2022/05/19 03:56:26;;;;;;;15.15;3.53;;;14.20;99.90;;;;;;5009096;28;20108;-58
2022/05/19 03:58:52;;;;;;;23.63;3.22;;;14.20;99.90;;;;;;5006822;28;20145;-58
2022/05/19 04:01:20;;;;;;;25.90;4.75;;;14.20;99.90;;;;;;5009608;28;20041;-58
2022/05/19 04:03:46;;;;;;;20.45;3.63;;;14.30;99.90;;;;;;5009515;28;20034;-58
2022/05/19 04:06:12;;;;;;;12.18;3.30;;;14.30;99.90;;;;;;5009096;28;20030;-57
2022/05/19 04:08:38;;;;;;;16.08;2.88;;;14.30;99.90;;;;;;5010946;28;20033;-57
2022/05/19 04:11:04;;;;;;;25.50;3.72;;;14.20;99.90;;;;;;5009928;28;20116;-58
2022/05/19 04:13:30;;;;;;;16.27;5.07;;;14.20;99.90;;;;;;5012232;28;20512;-58
2022/05/19 04:15:57;;;;;;;11.27;3.83;;;14.20;99.90;;;;;;5011234;28;20077;-59
2022/05/19 04:18:22;;;;;;;12.27;2.70;;;14.20;99.90;;;;;;5012237;28;20030;-58
2022/05/19 04:20:48;;;;;;;18.50;2.67;;;14.20;99.90;;;;;;5012863;28;20044;-60
2022/05/19 04:23:14;;;;;;;14.43;3.30;;;14.20;99.90;;;;;;5010833;28;20477;-58
2022/05/19 04:25:41;;;;;;;21.50;4.18;;;14.20;99.90;;;;;;5012646;28;20104;-58
2022/05/19 04:28:08;;;;;;;18.63;4.10;;;14.30;99.90;;;;;;5007083;28;20095;-59
2022/05/19 04:30:34;;;;;;;16.33;4.47;;;14.50;99.90;;;;;;5006782;28;20151;-58
2022/05/19 04:32:59;;;;;;;12.43;3.50;;;14.50;99.90;;;;;;5010508;28;20061;-58
2022/05/19 04:35:25;;;;;;;23.77;4.78;;;14.60;99.90;;;;;;5012445;28;20397;-58
2022/05/19 04:37:51;;;;;;;16.85;3.97;;;14.60;99.90;;;;;;5010430;28;20036;-58
2022/05/19 04:40:18;;;;;;;13.02;3.35;;;14.60;99.90;;;;;;5011238;28;20500;-58
2022/05/19 04:42:45;;;;;;;11.00;3.50;;;14.60;99.90;;;;;;5010449;28;20058;-58
2022/05/19 04:45:13;;;;;;;15.30;3.67;;;14.60;99.90;;;;;;5010759;28;20044;-58
2022/05/19 04:47:39;;;;;;;13.07;5.18;;;14.60;99.90;;;;;;5012219;28;20500;-58
2022/05/19 04:50:06;;;;;;;16.67;3.70;;;14.70;99.90;;;;;;5010129;28;20026;-58
2022/05/19 04:52:32;;;;;;;20.27;4.55;;;14.80;99.90;;;;;;5012000;28;20099;-58
2022/05/19 04:54:58;;;;;;;22.30;3.45;;;14.80;99.90;;;;;;5010459;28;20363;-58
2022/05/19 04:57:24;;;;;;;15.63;4.65;;;14.80;99.90;;;;;;5010729;28;20037;-58
2022/05/19 04:59:50;;;;;;;16.67;3.90;;;14.80;99.90;;;;;;5005073;28;20033;-58
2022/05/19 05:02:16;;;;;;;17.30;4.60;;;14.80;99.90;;;;;;5000530;28;20022;-58
2022/05/19 05:04:42;;;;;;;20.15;4.47;;;14.80;99.90;;;;;;5011836;28;20037;-58
2022/05/19 05:07:07;;;;;;;26.38;5.55;;;14.80;99.90;;;;;;5008694;28;20029;-58
2022/05/19 05:09:33;;;;;;;13.55;6.93;;;14.80;99.90;;;;;;5011837;28;20030;-58
2022/05/19 05:11:59;;;;;;;23.95;7.32;;;14.80;99.90;;;;;;5008075;28;20044;-58
2022/05/19 05:14:25;;;;;;;16.10;8.40;;;14.80;99.90;;;;;;5010425;28;20516;-58
2022/05/19 05:16:52;;;;;;;24.27;10.43;;;14.70;99.90;;;;;;5008493;28;20033;-59
2022/05/19 05:19:22;;;;;;;25.92;10.38;;;14.70;99.90;;;;;;5011277;28;20037;-58
2022/05/19 05:21:54;;;;;;;22.88;11.32;;;14.70;99.90;;;;;;5010971;28;20030;-58
2022/05/19 05:24:20;;;;;;;21.92;11.75;;;14.60;99.90;;;;;;5010676;28;20534;-58
2022/05/19 05:26:46;;;;;;;26.67;12.25;;;14.60;99.90;;;;;;5010131;28;20113;-58
2022/05/19 05:29:12;;;;;;;25.30;11.00;;;14.60;99.90;;;;;;5009314;28;20038;-58
2022/05/19 05:31:38;;;;;;;21.27;11.55;;;14.60;99.90;;;;;;5011099;28;20056;-58
2022/05/19 05:34:04;;;;;;;17.23;11.23;;;14.60;99.90;;;;;;5009500;28;20037;-59
2022/05/19 05:36:30;;;;;;;24.40;12.05;;;14.60;99.90;;;;;;5009630;28;20018;-60
2022/05/19 05:38:56;;;;;;;22.42;10.70;;;14.60;99.90;;;;;;5008532;28;20037;-58
2022/05/19 05:41:22;;;;;;;20.13;11.02;;;14.60;99.90;;;;;;5009016;28;20022;-58
2022/05/19 05:43:47;;;;;;;15.38;11.40;;;14.70;99.90;;;;;;5007014;28;20030;-59
2022/05/19 05:46:15;;;;;;;21.77;11.02;;;14.70;99.90;;;;;;5009452;28;20084;-59
2022/05/19 05:48:42;;;;;;;20.95;11.23;;;14.70;99.90;;;;;;5010687;28;20386;-58
2022/05/19 05:51:10;;;;;;;18.02;9.93;;;14.70;99.90;;;;;;5010585;28;20026;-58
2022/05/19 05:53:37;;;;;;;13.95;9.70;;;14.80;99.90;;;;;;5010929;28;20042;-59
2022/05/19 05:56:04;;;;;;;14.25;8.85;;;14.80;99.90;;;;;;5004019;28;20466;-59
2022/05/19 05:58:31;;;;;;;13.63;9.85;;;14.80;99.90;;;;;;5010272;28;20021;-59
2022/05/19 06:00:57;;;;;;;16.52;9.85;;;14.80;99.90;;;;;;5009164;28;20097;-59
2022/05/19 06:03:23;;;;;;;14.20;8.90;;;14.80;99.90;;;;;;5010641;28;20457;-59
2022/05/19 06:05:49;;;;;;;18.65;10.60;;;14.80;99.90;;;;;;5010104;28;20022;-58
2022/05/19 06:08:15;;;;;;;13.23;10.63;;;15.00;99.90;;;;;;5005391;28;20123;-59
2022/05/19 06:10:41;;;;;;;16.10;10.02;;;15.00;99.90;;;;;;5010461;28;20113;-58
2022/05/19 06:13:08;;;;;;;19.80;10.77;;;15.00;99.90;;;;;;5008314;28;20532;-58
2022/05/19 06:15:34;;;;;;;19.23;11.25;;;15.10;99.90;;;;;;5008978;28;20036;-58
2022/05/19 06:18:00;;;;;;;14.95;9.00;;;15.10;99.90;;;;;;5004640;28;20038;-60
2022/05/19 06:20:26;;;;;;;18.75;10.60;;;15.00;99.90;;;;;;5009540;28;20025;-58
2022/05/19 06:22:52;;;;;;;18.42;10.38;;;15.10;99.90;;;;;;5008587;28;20037;-59
2022/05/19 06:25:20;;;;;;;15.95;9.13;;;15.20;99.90;;;;;;5010037;28;20030;-59
2022/05/19 06:27:47;;;;;;;16.35;9.55;;;15.20;99.90;;;;;;5009257;28;20107;-59
2022/05/19 06:30:13;;;;;;;15.93;9.32;;;15.40;99.90;;;;;;5007915;28;20088;-59
2022/05/19 06:32:40;;;;;;;21.70;10.55;;;15.50;99.90;;;;;;5010056;28;20034;-58
2022/05/19 06:35:07;;;;;;;13.80;9.85;;;15.50;99.90;;;;;;5008145;28;20033;-58
2022/05/19 06:37:33;;;;;;;18.17;12.80;;;15.40;99.90;;;;;;5008943;28;20030;-58
2022/05/19 06:39:59;;;;;;;16.98;11.30;;;15.30;99.90;;;;;;5007960;28;20029;-59
2022/05/19 06:42:26;;;;;;;15.32;10.27;;;15.30;99.90;;;;;;5009081;28;20033;-58
2022/05/19 06:44:52;;;;;;;15.68;11.02;;;15.20;99.90;;;;;;5002770;28;20048;-58
2022/05/19 06:47:18;;;;;;;17.17;9.90;;;15.20;99.90;;;;;;5004098;28;20120;-60
2022/05/19 06:49:46;;;;;;;16.25;10.63;;;15.10;99.90;;;;;;5008916;28;20057;-59
2022/05/19 06:52:20;;;;;;;17.30;10.40;;;15.20;99.90;;;;;;5008371;28;20133;-59
2022/05/19 06:54:52;;;;;;;19.10;10.90;;;15.20;99.90;;;;;;5010230;28;20107;-59
2022/05/19 06:57:19;;;;;;;22.88;11.70;;;15.10;99.90;;;;;;5000918;28;20029;-58
2022/05/19 06:59:46;;;;;;;19.58;11.02;;;15.20;99.90;;;;;;4999637;28;20049;-59
2022/05/19 07:02:13;;;;;;;20.77;10.80;;;15.20;99.90;;;;;;5004297;28;20026;-59
2022/05/19 07:04:40;;;;;;;19.67;11.48;;;15.20;99.90;;;;;;5011211;28;20029;-59
2022/05/19 07:07:06;;;;;;;16.30;10.38;;;15.20;99.90;;;;;;5010341;28;20029;-59
2022/05/19 07:09:34;;;;;;;27.35;11.77;;;15.20;99.90;;;;;;5014296;28;20037;-61
2022/05/19 07:12:00;;;;;;;22.13;12.15;;;15.20;99.90;;;;;;5005586;28;20022;-62
2022/05/19 07:14:26;;;;;;;28.52;12.18;;;15.20;99.90;;;;;;5013848;28;20037;-64
2022/05/19 07:16:52;;;;;;;26.98;11.65;;;15.10;99.90;;;;;;5007407;28;20037;-61
2022/05/19 07:22:05;;;;;;;18.73;11.32;;;15.00;99.90;;;;;;5016366;28;20114;-60
2022/05/19 07:24:31;;;;;;;20.20;11.30;;;15.00;99.90;;;;;;5013488;28;20101;-60
2022/05/19 07:26:58;;;;;;;23.42;11.10;;;14.90;99.90;;;;;;5009893;28;20508;-60
2022/05/19 07:29:25;;;;;;;26.15;12.07;;;15.00;99.90;;;;;;5015469;28;20044;-60
2022/05/19 07:31:52;;;;;;;20.13;10.68;;;15.10;99.90;;;;;;5013089;28;20087;-60
2022/05/19 07:34:21;;;;;;;23.70;11.73;;;15.20;99.90;;;;;;5004707;28;20049;-59
2022/05/19 07:36:47;;;;;;;16.35;10.57;;;15.30;99.90;;;;;;5013596;28;20126;-59
2022/05/19 07:39:13;;;;;;;15.13;8.82;;;15.40;99.90;;;;;;5010478;28;20120;-59
2022/05/19 07:41:40;;;;;;;17.08;9.68;;;15.40;99.90;;;;;;5014335;28;20493;-59
2022/05/19 07:44:07;;;;;;;20.58;9.88;;;15.50;99.90;;;;;;5009804;28;20032;-65
2022/05/19 07:46:34;;;;;;;15.60;7.85;;;15.50;99.90;;;;;;5011786;28;20033;-59
2022/05/19 07:49:00;;;;;;;15.82;7.63;;;15.50;99.90;;;;;;5003198;28;20037;-58
2022/05/19 07:51:31;;;;;;;14.93;7.50;;;15.60;99.90;;;;;;5010677;28;20030;-58
2022/05/19 07:53:57;;;;;;;15.68;8.02;;;15.60;99.90;;;;;;5012935;28;20068;-58
2022/05/19 07:56:24;;;;;;;11.88;7.55;;;15.70;99.90;;;;;;5013253;28;20026;-61
2022/05/19 07:58:50;;;;;;;26.33;9.50;;;15.70;99.90;;;;;;5012140;28;20137;-59
2022/05/19 08:01:16;;;;;;;12.88;6.35;;;15.70;99.90;;;;;;5015132;28;20425;-60
2022/05/19 08:03:42;;;;;;;14.52;7.05;;;15.60;99.90;;;;;;5022675;28;20091;-59
2022/05/19 08:06:10;;;;;;;14.95;8.75;;;15.60;99.90;;;;;;5016154;28;20761;-59
2022/05/19 08:08:39;;;;;;;12.18;7.82;;;15.50;99.90;;;;;;5011270;28;20026;-59
2022/05/19 08:11:06;;;;;;;15.43;7.05;;;15.50;99.90;;;;;;5011666;28;20363;-59
2022/05/19 08:16:15;;;;;;;12.27;8.00;;;15.50;99.90;;;;;;5004933;28;20539;-60
2022/05/19 08:18:44;;;;;;;10.43;6.03;;;15.60;99.90;;;;;;5005601;28;20053;-59
2022/05/19 08:21:11;;;;;;;10.18;6.10;;;15.70;99.90;;;;;;5002856;28;20084;-59
2022/05/19 08:23:42;;;;;;;11.20;5.45;;;15.70;99.90;;;;;;5005415;28;20429;-60
2022/05/19 08:26:09;;;;;;;13.23;6.68;;;15.80;99.90;;;;;;5009444;28;20513;-58
2022/05/19 08:28:38;;;;;;;8.88;5.38;;;16.00;99.90;;;;;;5018329;28;20081;-59
2022/05/19 08:31:14;;;;;;;14.02;6.45;;;16.10;99.30;;;;;;5012507;28;20062;-59
2022/05/19 08:33:42;;;;;;;11.68;5.93;;;16.20;99.60;;;;;;5015929;28;20565;-58
2022/05/19 08:36:10;;;;;;;8.85;6.22;;;16.30;98.70;;;;;;5009504;28;20080;-60
2022/05/19 08:38:37;;;;;;;5.38;4.88;;;16.40;98.40;;;;;;5011615;28;20493;-60
2022/05/19 08:41:25;;;;;;;12.65;6.40;;;16.60;97.80;;;;;;5016668;28;20040;-59
2022/05/19 08:44:19;;;;;;;8.15;2.80;;;16.90;98.50;;;;;;5013594;28;20029;-59
2022/05/19 08:46:49;;;;;;;4.85;2.40;;;17.10;94.00;;;;;;5007782;28;20133;-59
2022/05/19 08:49:25;;;;;;;3.60;2.00;;;17.10;93.20;;;;;;4999775;28;20026;-59
2022/05/19 08:52:10;;;;;;;4.60;1.95;;;17.20;92.60;;;;;;5001814;28;20030;-59
2022/05/19 08:54:38;;;;;;;4.35;1.75;;;17.20;92.00;;;;;;4999085;28;20041;-59
2022/05/19 08:57:20;;;;;;;3.95;1.38;;;17.20;90.40;;;;;;5016651;28;20460;-59
2022/05/19 08:59:51;;;;;;;1.60;0.97;;;17.00;90.10;;;;;;5010066;28;20488;-59
2022/05/19 09:02:25;;;;;;;2.03;1.27;;;17.00;90.70;;;;;;5017635;28;20028;-60
2022/05/19 09:05:25;;;;;;;4.82;2.38;;;17.10;90.50;;;;;;5009381;28;20780;-59
2022/05/19 09:08:00;;;;;;;5.30;2.03;;;17.20;91.10;;;;;;5009606;28;20034;-59
2022/05/19 09:10:44;;;;;;;4.30;2.50;;;16.90;91.30;;;;;;5005971;28;20022;-60
2022/05/19 09:13:21;;;;;;;3.85;2.63;;;16.70;91.10;;;;;;5009046;28;20406;-59
2022/05/19 09:15:47;;;;;;;4.10;1.67;;;16.60;92.20;;;;;;5013800;28;20520;-59
2022/05/19 09:18:16;;;;;;;5.28;2.20;;;16.40;91.00;;;;;;5018784;28;20367;-63
2022/05/19 09:20:51;;;;;;;5.03;1.70;;;16.40;93.00;;;;;;5017236;28;20052;-59
2022/05/19 09:23:18;;;;;;;6.88;2.45;;;16.20;92.00;;;;;;5012194;28;20112;-59
2022/05/19 09:25:56;;;;;;;4.50;2.00;;;16.30;92.90;;;;;;5016220;28;20038;-60
2022/05/19 09:28:22;;;;;;;7.40;1.85;;;16.20;93.10;;;;;;5009621;28;20060;-59
2022/05/19 09:30:54;;;;;;;3.65;1.55;;;16.30;92.90;;;;;;5011369;28;20053;-58
2022/05/19 09:33:44;;;;;;;2.08;1.38;;;16.20;92.00;;;;;;5005044;28;20536;-59
2022/05/19 09:36:13;;;;;;;4.63;2.20;;;16.20;91.50;;;;;;5003478;28;20030;-59
2022/05/19 09:38:55;;;;;;;7.93;3.35;;;16.40;91.50;;;;;;5008502;28;20137;-59
2022/05/19 09:41:40;;;;;;;4.07;1.90;;;16.70;91.80;;;;;;5010510;28;20026;-60
2022/05/19 09:44:14;;;;;;;4.00;1.95;;;17.00;91.70;;;;;;5006207;28;20054;-58
2022/05/19 09:46:43;;;;;;;3.28;1.45;;;17.00;89.30;;;;;;5009102;28;20037;-59
2022/05/19 09:49:30;;;;;;;4.07;1.80;;;17.00;90.40;;;;;;5011213;28;20021;-58
2022/05/19 09:52:03;;;;;;;4.38;3.33;;;17.20;90.50;;;;;;5009294;28;20051;-59
2022/05/19 09:54:34;;;;;;;2.78;1.40;;;17.40;88.20;;;;;;5007556;28;20076;-59
2022/05/19 09:57:09;;;;;;;6.68;2.15;;;17.70;87.00;;;;;;4990551;28;20056;-60
2022/05/19 09:59:44;;;;;;;3.33;1.30;;;17.90;88.40;;;;;;5013701;28;20041;-59
2022/05/19 10:02:32;;;;;;;8.40;2.08;;;18.00;85.50;;;;;;5006571;28;20029;-59
2022/05/19 10:05:20;;;;;;;7.13;1.70;;;18.20;85.40;;;;;;5009817;28;20142;-59
2022/05/19 10:07:49;;;;;;;4.82;1.52;;;18.20;83.50;;;;;;5010754;28;20119;-60
2022/05/19 10:10:27;;;;;;;4.10;1.48;;;18.30;81.90;;;;;;5009573;28;20033;-60
2022/05/19 10:12:58;;;;;;;6.63;1.30;;;18.50;81.60;;;;;;5003576;28;20038;-59
2022/05/19 10:15:30;;;;;;;5.43;1.17;;;18.60;80.40;;;;;;5016035;28;20029;-59
2022/05/19 10:18:02;;;;;;;7.32;1.70;;;18.80;81.90;;;;;;5001349;28;20478;-58
2022/05/19 10:20:30;;;;;;;;;;;19.00;81.20;;;;;;5009189;28;20042;-60
2022/05/19 10:23:27;;;;;;;4.80;1.30;;;19.10;76.80;;;;;;5008915;28;20349;-58
2022/05/19 10:25:58;;;;;;;2.53;1.25;;;19.10;77.30;;;;;;5012370;28;20033;-59
2022/05/19 10:31:41;;;;;;;2.70;1.30;;;18.40;80.30;;;;;;5003868;28;20045;-59
2022/05/19 10:34:20;;;;;;;3.55;1.33;;;18.50;80.30;;;;;;5012046;28;20038;-60
2022/05/19 10:36:54;;;;;;;6.95;1.80;;;19.20;80.00;;;;;;5009980;28;20044;-58
2022/05/19 10:39:42;;;;;;;4.35;1.40;;;19.30;77.80;;;;;;5001417;28;20504;-60
2022/05/19 10:42:20;;;;;;;3.72;1.20;;;18.90;77.70;;;;;;5015767;28;20037;-59
2022/05/19 10:45:16;;;;;;;2.90;1.30;;;19.10;78.70;;;;;;5003170;28;20042;-62
2022/05/19 10:48:26;;;;;;;2.10;1.17;;;19.20;77.40;;;;;;5005380;28;20052;-59
2022/05/19 10:51:05;;;;;;;2.58;1.50;;;19.30;77.70;;;;;;4998849;28;20053;-60
2022/05/19 10:53:49;;;;;;;6.10;1.70;;;18.90;77.70;;;;;;5013300;28;20033;-59
2022/05/19 10:56:37;;;;;;;4.40;1.67;;;19.40;77.10;;;;;;5005137;28;20043;-59
2022/05/19 10:59:19;;;;;;;4.88;1.40;;;19.70;74.50;;;;;;5002570;28;20030;-60
2022/05/19 11:02:12;;;;;;;4.38;1.85;;;20.10;75.20;;;;;;5005967;28;20038;-60
2022/05/19 11:04:47;;;;;;;5.70;1.92;;;20.60;70.90;;;;;;5004450;28;20125;-59
2022/05/19 11:07:40;;;;;;;2.88;1.20;;;20.90;71.60;;;;;;5008322;28;20034;-60
2022/05/19 11:10:26;;;;;;;3.17;1.90;;;20.40;68.50;;;;;;5001563;28;20046;-60
2022/05/19 11:13:04;;;;;;;3.95;1.52;;;20.50;69.70;;;;;;5007649;28;20045;-59
2022/05/19 11:15:43;;;;;;;9.02;2.90;;;20.30;69.70;;;;;;5005671;28;20038;-59
2022/05/19 11:18:23;;;;;;;7.03;2.35;;;20.70;70.10;;;;;;5011764;28;20025;-59
2022/05/19 11:21:31;;;;;;;5.18;1.90;;;21.20;68.00;;;;;;5013253;28;20129;-59
2022/05/19 11:24:00;;;;;;;3.92;1.52;;;20.90;69.70;;;;;;5004647;28;20124;-59
2022/05/19 11:26:47;;;;;;;7.07;1.60;;;21.00;68.30;;;;;;5008625;28;20025;-59
2022/05/19 11:29:43;;;;;;;7.50;1.70;;;20.30;68.20;;;;;;5013469;28;20034;-59
2022/05/19 11:32:31;;;;;;;7.30;1.88;;;20.70;68.80;;;;;;5005341;28;20051;-59
2022/05/19 11:35:15;;;;;;;7.38;1.83;;;20.80;70.50;;;;;;5013906;28;20034;-60
2022/05/19 11:37:56;;;;;;;7.28;1.92;;;21.40;67.10;;;;;;5018597;28;20075;-60
2022/05/19 11:40:32;;;;;;;5.35;1.70;;;22.10;63.00;;;;;;5016159;28;20397;-59
2022/05/19 11:43:05;;;;;;;5.85;1.95;;;21.80;62.30;;;;;;5012150;28;20045;-60
2022/05/19 11:45:52;;;;;;;3.88;2.05;;;21.50;60.10;;;;;;5020173;28;20025;-59
2022/05/19 11:57:38;;;;;;;5.75;1.73;;;23.20;57.50;;;;;;5001481;28;20386;-60
2022/05/19 12:00:04;;;;;;;;;;;22.80;57.50;;;;;;5009486;28;20030;-59
2022/05/19 12:02:56;;;;;;;6.55;2.00;;;22.40;57.40;;;;;;5011055;28;19916;-62
2022/05/19 12:05:35;;;;;;;6.97;1.80;;;22.50;57.30;;;;;;5008175;28;20018;-60
2022/05/19 12:08:37;;;;;;;6.30;1.60;;;22.50;58.10;;;;;;5009782;28;20037;-59
2022/05/19 12:11:30;;;;;;;7.07;1.50;;;22.20;58.90;;;;;;5001206;28;20157;-60
2022/05/19 12:14:11;;;;;;;5.43;1.70;;;22.50;57.80;;;;;;5005816;28;20034;-61
2022/05/19 12:17:03;;;;;;;6.40;2.03;;;23.10;57.80;;;;;;5007238;28;20030;-60
2022/05/19 12:19:39;;;;;;;5.25;1.83;;;23.10;56.70;;;;;;5001131;28;20125;-59
2022/05/19 12:22:29;;;;;;;5.88;2.20;;;22.70;58.30;;;;;;5007212;28;20472;-60
2022/05/19 12:25:08;;;;;;;6.32;2.20;;;22.60;57.50;;;;;;5009244;28;20125;-59
2022/05/19 12:27:37;;;;;;;7.85;2.13;;;22.70;58.30;;;;;;5007535;28;20108;-59
2022/05/19 12:33:12;;;;;;;8.20;2.10;;;22.60;57.90;;;;;;5009786;28;20044;-60
2022/05/19 12:35:39;;;;;;;5.57;1.95;;;22.90;57.80;;;;;;4997566;28;20053;-60
2022/05/19 12:38:30;;;;;;;6.32;1.88;;;23.40;55.10;;;;;;5011282;28;20025;-58
2022/05/19 12:40:59;;;;;;;6.28;1.73;;;23.20;56.20;;;;;;5012760;28;20113;-60
2022/05/19 12:43:37;;;;;;;7.13;1.65;;;23.10;55.70;;;;;;5016160;28;20460;-60
2022/05/19 12:46:06;;;;;;;12.00;2.47;;;22.70;55.70;;;;;;5013281;28;20387;-60
2022/05/19 12:48:34;;;;;;;5.95;1.90;;;22.40;56.90;;;;;;5011617;28;20029;-60
2022/05/19 12:51:06;;;;;;;5.63;1.70;;;22.30;57.50;;;;;;5009145;28;20096;-60
2022/05/19 12:53:44;;;;;;;6.65;1.80;;;22.50;56.40;;;;;;5011418;28;20049;-60
2022/05/19 12:56:31;;;;;;;13.15;2.17;;;22.30;58.10;;;;;;5009604;28;20593;-59
2022/05/19 12:59:04;;;;;;;5.82;1.77;;;22.80;56.10;;;;;;5013548;28;20088;-60
2022/05/19 13:01:47;;;;;;;5.05;2.47;;;23.30;55.40;;;;;;5015723;28;20053;-60
2022/05/19 13:04:31;;;;;;;3.75;1.80;;;23.20;54.50;;;;;;5007542;28;20034;-59
2022/05/19 13:07:10;;;;;;;8.70;1.95;;;23.20;54.70;;;;;;4994571;28;20033;-60
2022/05/19 13:09:37;;;;;;;5.63;2.15;;;22.30;55.70;;;;;;5009223;28;20093;-59
2022/05/19 13:12:19;;;;;;;8.73;1.73;;;22.80;56.50;;;;;;5012284;28;20449;-59
2022/05/19 13:14:47;;;;;;;;;;;22.60;55.70;;;;;;5001709;28;20520;-59
2022/05/19 13:17:22;;;;;;;6.78;1.38;;;22.80;55.50;;;;;;5002523;28;19913;-59
2022/05/19 13:19:48;;;;;;;6.85;2.05;;;23.00;55.80;;;;;;5006423;28;20041;-60
2022/05/19 13:22:26;;;;;;;5.32;1.92;;;23.20;55.00;;;;;;5009155;28;20112;-60
2022/05/19 13:24:53;;;;;;;9.77;2.35;;;23.40;54.90;;;;;;5006791;28;20464;-60